sensor_id;sensor_type;location;lat;lon;timestamp;pressure;altitude;pressure_sealevel;temperature;humidity
31761;BME280;18335;51.486;7.562;2024-03-29T00:00:26;98067.59;;;9.57;100.00
31761;BME280;18335;51.486;7.562;2024-03-29T00:02:52;98063.00;;;9.64;100.00
31761;BME280;18335;51.486;7.562;2024-03-29T00:05:18;98053.16;;;9.57;100.00
31761;BME280;18335;51.486;7.562;2024-03-29T00:07:44;98055.69;;;9.52;100.00
31761;BME280;18335;51.486;7.562;2024-03-29T00:10:10;98056.06;;;9.62;100.00
31761;BME280;18335;51.486;7.562;2024-03-29T00:12:35;98047.66;;;9.76;100.00
31761;BME280;18335;51.486;7.562;2024-03-29T00:15:01;98048.09;;;9.73;100.00
31761;BME280;18335;51.486;7.562;2024-03-29T00:17:28;98043.94;;;9.64;100.00
31761;BME280;18335;51.486;7.562;2024-03-29T00:19:54;98039.13;;;9.53;100.00
31761;BME280;18335;51.486;7.562;2024-03-29T00:22:20;98043.50;;;9.67;100.00
31761;BME280;18335;51.486;7.562;2024-03-29T00:24:46;98035.72;;;9.77;100.00
31761;BME280;18335;51.486;7.562;2024-03-29T00:27:12;98037.63;;;9.70;100.00
31761;BME280;18335;51.486;7.562;2024-03-29T00:29:38;98028.78;;;9.81;100.00
31761;BME280;18335;51.486;7.562;2024-03-29T00:32:04;98031.31;;;9.76;100.00
31761;BME280;18335;51.486;7.562;2024-03-29T00:34:31;98031.78;;;9.60;100.00
31761;BME280;18335;51.486;7.562;2024-03-29T00:36:57;98019.63;;;9.63;100.00
31761;BME280;18335;51.486;7.562;2024-03-29T00:39:23;98019.63;;;9.63;100.00
31761;BME280;18335;51.486;7.562;2024-03-29T00:41:49;98009.41;;;9.45;100.00
31761;BME280;18335;51.486;7.562;2024-03-29T00:44:14;98003.63;;;9.86;100.00
31761;BME280;18335;51.486;7.562;2024-03-29T00:46:40;98017.56;;;9.58;100.00
31761;BME280;18335;51.486;7.562;2024-03-29T00:49:06;98015.88;;;9.57;100.00
31761;BME280;18335;51.486;7.562;2024-03-29T00:51:33;98018.13;;;9.73;100.00
31761;BME280;18335;51.486;7.562;2024-03-29T00:53:59;98040.19;;;9.52;100.00
31761;BME280;18335;51.486;7.562;2024-03-29T00:56:25;98039.53;;;9.63;100.00
31761;BME280;18335;51.486;7.562;2024-03-29T00:58:50;98044.19;;;9.43;100.00
31761;BME280;18335;51.486;7.562;2024-03-29T01:01:16;98048.13;;;9.47;100.00
31761;BME280;18335;51.486;7.562;2024-03-29T01:03:42;98046.03;;;9.56;100.00
31761;BME280;18335;51.486;7.562;2024-03-29T01:06:08;98043.94;;;9.58;100.00
31761;BME280;18335;51.486;7.562;2024-03-29T01:08:35;98043.94;;;9.44;100.00
31761;BME280;18335;51.486;7.562;2024-03-29T01:11:01;98043.94;;;9.51;100.00
31761;BME280;18335;51.486;7.562;2024-03-29T01:13:26;98038.94;;;9.41;100.00
31761;BME280;18335;51.486;7.562;2024-03-29T01:15:52;98037.22;;;9.60;100.00
31761;BME280;18335;51.486;7.562;2024-03-29T01:18:18;98042.66;;;9.60;100.00
31761;BME280;18335;51.486;7.562;2024-03-29T01:20:44;98036.19;;;9.61;100.00
31761;BME280;18335;51.486;7.562;2024-03-29T01:23:10;98030.09;;;9.66;100.00
31761;BME280;18335;51.486;7.562;2024-03-29T01:25:37;98038.06;;;9.54;100.00
31761;BME280;18335;51.486;7.562;2024-03-29T01:28:03;98047.94;;;9.49;100.00
31761;BME280;18335;51.486;7.562;2024-03-29T01:30:29;98048.13;;;9.60;100.00
31761;BME280;18335;51.486;7.562;2024-03-29T01:32:55;98038.69;;;9.56;100.00
31761;BME280;18335;51.486;7.562;2024-03-29T01:35:21;98044.13;;;9.56;100.00
31761;BME280;18335;51.486;7.562;2024-03-29T01:37:47;98044.72;;;9.71;100.00
31761;BME280;18335;51.486;7.562;2024-03-29T01:40:12;98049.81;;;9.48;100.00
31761;BME280;18335;51.486;7.562;2024-03-29T01:42:40;98057.13;;;9.67;100.00
31761;BME280;18335;51.486;7.562;2024-03-29T01:45:06;98050.41;;;9.76;100.00
31761;BME280;18335;51.486;7.562;2024-03-29T01:47:33;98051.84;;;9.85;100.00
31761;BME280;18335;51.486;7.562;2024-03-29T01:50:00;98043.03;;;9.83;100.00
31761;BME280;18335;51.486;7.562;2024-03-29T01:52:27;98054.78;;;9.77;100.00
31761;BME280;18335;51.486;7.562;2024-03-29T01:54:55;98048.47;;;9.83;100.00
31761;BME280;18335;51.486;7.562;2024-03-29T01:57:22;98062.31;;;9.82;100.00
31761;BME280;18335;51.486;7.562;2024-03-29T01:59:51;98054.94;;;9.95;100.00
31761;BME280;18335;51.486;7.562;2024-03-29T02:02:18;98041.09;;;9.97;100.00
31761;BME280;18335;51.486;7.562;2024-03-29T02:04:45;98040.41;;;10.08;100.00
31761;BME280;18335;51.486;7.562;2024-03-29T02:07:12;98042.53;;;10.06;100.00
31761;BME280;18335;51.486;7.562;2024-03-29T02:09:39;98032.19;;;10.28;100.00
31761;BME280;18335;51.486;7.562;2024-03-29T02:12:07;98031.41;;;10.21;100.00
31761;BME280;18335;51.486;7.562;2024-03-29T02:14:33;98024.44;;;10.25;100.00
31761;BME280;18335;51.486;7.562;2024-03-29T02:17:01;98016.25;;;10.25;100.00
31761;BME280;18335;51.486;7.562;2024-03-29T02:19:28;98013.47;;;10.38;100.00
31761;BME280;18335;51.486;7.562;2024-03-29T02:21:57;98005.63;;;10.17;100.00
31761;BME280;18335;51.486;7.562;2024-03-29T02:24:27;97989.97;;;10.37;100.00
31761;BME280;18335;51.486;7.562;2024-03-29T02:26:54;97985.06;;;10.21;100.00
31761;BME280;18335;51.486;7.562;2024-03-29T02:29:23;97981.88;;;10.30;100.00
31761;BME280;18335;51.486;7.562;2024-03-29T02:31:49;97978.50;;;10.28;100.00
31761;BME280;18335;51.486;7.562;2024-03-29T02:34:16;97993.34;;;10.39;100.00
31761;BME280;18335;51.486;7.562;2024-03-29T02:36:44;97974.81;;;10.16;100.00
31761;BME280;18335;51.486;7.562;2024-03-29T02:39:11;97978.97;;;10.19;100.00
31761;BME280;18335;51.486;7.562;2024-03-29T02:41:39;97972.53;;;10.44;100.00
31761;BME280;18335;51.486;7.562;2024-03-29T02:44:06;97978.16;;;10.49;100.00
31761;BME280;18335;51.486;7.562;2024-03-29T02:46:33;97978.19;;;10.43;100.00
31761;BME280;18335;51.486;7.562;2024-03-29T02:48:59;97971.22;;;10.53;100.00
31761;BME280;18335;51.486;7.562;2024-03-29T02:51:25;97988.22;;;10.49;100.00
31761;BME280;18335;51.486;7.562;2024-03-29T02:53:52;97989.41;;;10.66;100.00
31761;BME280;18335;51.486;7.562;2024-03-29T02:56:18;97999.47;;;10.90;100.00
31761;BME280;18335;51.486;7.562;2024-03-29T02:58:48;98014.34;;;10.94;100.00
31761;BME280;18335;51.486;7.562;2024-03-29T03:01:14;98014.50;;;10.99;100.00
31761;BME280;18335;51.486;7.562;2024-03-29T03:03:40;98002.88;;;11.10;100.00
31761;BME280;18335;51.486;7.562;2024-03-29T03:06:06;98003.13;;;11.27;100.00
31761;BME280;18335;51.486;7.562;2024-03-29T03:08:33;98014.16;;;11.14;100.00
31761;BME280;18335;51.486;7.562;2024-03-29T03:11:17;98025.03;;;11.21;100.00
31761;BME280;18335;51.486;7.562;2024-03-29T03:13:44;98017.38;;;11.29;100.00
31761;BME280;18335;51.486;7.562;2024-03-29T03:16:11;98016.13;;;11.32;100.00
31761;BME280;18335;51.486;7.562;2024-03-29T03:18:38;98015.69;;;11.35;100.00
31761;BME280;18335;51.486;7.562;2024-03-29T03:21:04;98006.81;;;11.39;100.00
31761;BME280;18335;51.486;7.562;2024-03-29T03:23:31;98019.03;;;11.55;100.00
31761;BME280;18335;51.486;7.562;2024-03-29T03:25:57;98014.91;;;11.28;100.00
31761;BME280;18335;51.486;7.562;2024-03-29T03:28:25;98017.06;;;11.44;100.00
31761;BME280;18335;51.486;7.562;2024-03-29T03:30:51;98020.34;;;11.28;100.00
31761;BME280;18335;51.486;7.562;2024-03-29T03:33:20;98017.97;;;11.38;100.00
31761;BME280;18335;51.486;7.562;2024-03-29T03:35:46;97998.56;;;11.21;100.00
31761;BME280;18335;51.486;7.562;2024-03-29T03:38:13;98002.59;;;11.19;100.00
31761;BME280;18335;51.486;7.562;2024-03-29T03:40:39;98000.59;;;11.07;100.00
31761;BME280;18335;51.486;7.562;2024-03-29T03:43:06;98000.84;;;10.99;100.00
31761;BME280;18335;51.486;7.562;2024-03-29T03:45:33;97986.59;;;11.22;100.00
31761;BME280;18335;51.486;7.562;2024-03-29T03:48:01;97994.25;;;11.14;100.00
31761;BME280;18335;51.486;7.562;2024-03-29T03:50:28;97993.25;;;10.83;100.00
31761;BME280;18335;51.486;7.562;2024-03-29T03:52:55;98002.81;;;11.17;100.00
31761;BME280;18335;51.486;7.562;2024-03-29T03:55:21;97997.09;;;11.00;100.00
31761;BME280;18335;51.486;7.562;2024-03-29T03:57:48;97993.34;;;10.95;100.00
31761;BME280;18335;51.486;7.562;2024-03-29T04:00:14;98006.16;;;10.94;100.00
31761;BME280;18335;51.486;7.562;2024-03-29T04:02:40;98007.09;;;11.06;100.00
31761;BME280;18335;51.486;7.562;2024-03-29T04:05:07;98012.22;;;10.96;100.00
31761;BME280;18335;51.486;7.562;2024-03-29T04:07:35;98029.09;;;10.87;100.00
31761;BME280;18335;51.486;7.562;2024-03-29T04:10:01;98019.75;;;11.01;100.00
31761;BME280;18335;51.486;7.562;2024-03-29T04:12:27;98017.97;;;10.88;100.00
31761;BME280;18335;51.486;7.562;2024-03-29T04:14:53;98005.56;;;10.92;100.00
31761;BME280;18335;51.486;7.562;2024-03-29T04:17:22;98003.72;;;10.86;100.00
31761;BME280;18335;51.486;7.562;2024-03-29T04:19:48;98007.19;;;10.93;100.00
31761;BME280;18335;51.486;7.562;2024-03-29T04:22:15;98011.22;;;10.66;100.00
31761;BME280;18335;51.486;7.562;2024-03-29T04:24:42;98001.63;;;10.82;100.00
31761;BME280;18335;51.486;7.562;2024-03-29T04:27:08;98023.34;;;10.70;100.00
31761;BME280;18335;51.486;7.562;2024-03-29T04:29:34;98029.88;;;10.69;100.00
31761;BME280;18335;51.486;7.562;2024-03-29T04:32:01;98011.88;;;10.55;100.00
31761;BME280;18335;51.486;7.562;2024-03-29T04:34:27;98013.66;;;10.74;100.00
31761;BME280;18335;51.486;7.562;2024-03-29T04:36:53;98015.94;;;10.46;100.00
31761;BME280;18335;51.486;7.562;2024-03-29T04:39:20;98017.34;;;10.24;100.00
31761;BME280;18335;51.486;7.562;2024-03-29T04:41:48;98022.81;;;10.17;100.00
31761;BME280;18335;51.486;7.562;2024-03-29T04:44:23;98020.53;;;10.01;100.00
31761;BME280;18335;51.486;7.562;2024-03-29T04:46:51;98021.97;;;10.17;100.00
31761;BME280;18335;51.486;7.562;2024-03-29T04:49:18;98021.91;;;10.30;100.00
31761;BME280;18335;51.486;7.562;2024-03-29T04:51:48;98018.19;;;10.18;100.00
31761;BME280;18335;51.486;7.562;2024-03-29T04:54:15;98010.47;;;10.01;100.00
31761;BME280;18335;51.486;7.562;2024-03-29T04:56:42;98009.59;;;10.21;100.00
31761;BME280;18335;51.486;7.562;2024-03-29T04:59:10;98015.97;;;10.39;100.00
31761;BME280;18335;51.486;7.562;2024-03-29T05:01:37;98005.72;;;10.35;100.00
31761;BME280;18335;51.486;7.562;2024-03-29T05:04:05;98007.50;;;10.10;100.00
31761;BME280;18335;51.486;7.562;2024-03-29T05:06:33;98005.72;;;10.35;100.00
31761;BME280;18335;51.486;7.562;2024-03-29T05:09:00;97991.97;;;10.23;100.00
31761;BME280;18335;51.486;7.562;2024-03-29T05:11:26;97994.25;;;10.26;100.00
31761;BME280;18335;51.486;7.562;2024-03-29T05:13:53;98001.97;;;10.36;100.00
31761;BME280;18335;51.486;7.562;2024-03-29T05:16:21;98000.75;;;10.25;100.00
31761;BME280;18335;51.486;7.562;2024-03-29T05:18:48;98008.28;;;10.30;100.00
31761;BME280;18335;51.486;7.562;2024-03-29T05:21:15;98012.50;;;10.19;100.00
31761;BME280;18335;51.486;7.562;2024-03-29T05:23:42;97999.72;;;10.20;100.00
31761;BME280;18335;51.486;7.562;2024-03-29T05:26:08;97992.13;;;10.28;100.00
31761;BME280;18335;51.486;7.562;2024-03-29T05:28:35;97989.22;;;10.30;100.00
31761;BME280;18335;51.486;7.562;2024-03-29T05:31:11;97987.09;;;10.32;100.00
31761;BME280;18335;51.486;7.562;2024-03-29T05:33:40;97975.03;;;10.15;100.00
31761;BME280;18335;51.486;7.562;2024-03-29T05:36:07;97979.63;;;10.21;100.00
31761;BME280;18335;51.486;7.562;2024-03-29T05:38:36;97988.44;;;10.16;100.00
31761;BME280;18335;51.486;7.562;2024-03-29T05:41:03;97985.50;;;10.18;100.00
31761;BME280;18335;51.486;7.562;2024-03-29T05:43:30;97982.94;;;10.23;100.00
31761;BME280;18335;51.486;7.562;2024-03-29T05:45:57;97980.25;;;10.10;100.00
31761;BME280;18335;51.486;7.562;2024-03-29T05:48:25;97976.28;;;10.12;100.00
31761;BME280;18335;51.486;7.562;2024-03-29T05:50:54;97973.16;;;10.09;100.00
31761;BME280;18335;51.486;7.562;2024-03-29T05:53:20;97956.41;;;9.98;100.00
31761;BME280;18335;51.486;7.562;2024-03-29T05:55:47;97958.16;;;9.86;100.00
31761;BME280;18335;51.486;7.562;2024-03-29T05:58:14;97955.81;;;9.96;100.00
31761;BME280;18335;51.486;7.562;2024-03-29T06:00:44;97956.06;;;9.88;100.00
31761;BME280;18335;51.486;7.562;2024-03-29T06:03:11;97967.84;;;9.82;100.00
31761;BME280;18335;51.486;7.562;2024-03-29T06:05:39;97958.28;;;9.60;100.00
31761;BME280;18335;51.486;7.562;2024-03-29T06:08:08;97957.22;;;9.61;100.00
31761;BME280;18335;51.486;7.562;2024-03-29T06:10:34;97957.59;;;9.71;100.00
31761;BME280;18335;51.486;7.562;2024-03-29T06:13:01;97946.63;;;9.40;100.00
31761;BME280;18335;51.486;7.562;2024-03-29T06:15:33;97938.34;;;9.66;100.00
31761;BME280;18335;51.486;7.562;2024-03-29T06:18:13;97950.84;;;9.80;100.00
31761;BME280;18335;51.486;7.562;2024-03-29T06:20:42;97944.19;;;9.76;100.00
31761;BME280;18335;51.486;7.562;2024-03-29T06:23:10;97943.38;;;9.69;100.00
31761;BME280;18335;51.486;7.562;2024-03-29T06:25:36;97937.88;;;9.82;100.00
31761;BME280;18335;51.486;7.562;2024-03-29T06:28:03;97926.16;;;9.75;100.00
31761;BME280;18335;51.486;7.562;2024-03-29T06:30:30;97921.97;;;9.79;100.00
31761;BME280;18335;51.486;7.562;2024-03-29T06:32:57;97926.97;;;9.82;100.00
31761;BME280;18335;51.486;7.562;2024-03-29T06:35:27;97930.72;;;9.88;100.00
31761;BME280;18335;51.486;7.562;2024-03-29T06:37:53;97937.34;;;9.98;100.00
31761;BME280;18335;51.486;7.562;2024-03-29T06:40:21;97934.94;;;9.77;100.00
31761;BME280;18335;51.486;7.562;2024-03-29T06:42:48;97923.63;;;9.80;100.00
31761;BME280;18335;51.486;7.562;2024-03-29T06:45:15;97923.44;;;9.75;100.00
31761;BME280;18335;51.486;7.562;2024-03-29T06:47:41;97931.94;;;9.92;100.00
31761;BME280;18335;51.486;7.562;2024-03-29T06:50:08;97918.72;;;9.95;100.00
31761;BME280;18335;51.486;7.562;2024-03-29T06:52:35;97904.75;;;9.85;100.00
31761;BME280;18335;51.486;7.562;2024-03-29T06:55:02;97910.72;;;10.00;100.00
31761;BME280;18335;51.486;7.562;2024-03-29T06:57:30;97931.72;;;9.93;100.00
31761;BME280;18335;51.486;7.562;2024-03-29T06:59:57;97926.81;;;10.09;100.00
31761;BME280;18335;51.486;7.562;2024-03-29T07:02:24;97922.53;;;9.94;100.00
31761;BME280;18335;51.486;7.562;2024-03-29T07:04:51;97897.84;;;10.21;100.00
31761;BME280;18335;51.486;7.562;2024-03-29T07:07:17;97900.75;;;10.26;100.00
31761;BME280;18335;51.486;7.562;2024-03-29T07:09:44;97906.16;;;10.32;100.00
31761;BME280;18335;51.486;7.562;2024-03-29T07:12:11;97921.22;;;10.35;100.00
31761;BME280;18335;51.486;7.562;2024-03-29T07:14:39;97928.88;;;10.51;100.00
31761;BME280;18335;51.486;7.562;2024-03-29T07:17:05;97924.13;;;10.40;100.00
31761;BME280;18335;51.486;7.562;2024-03-29T07:19:32;97924.53;;;10.43;100.00
31761;BME280;18335;51.486;7.562;2024-03-29T07:21:59;97942.56;;;10.44;100.00
31761;BME280;18335;51.486;7.562;2024-03-29T07:24:26;97924.75;;;10.42;100.00
31761;BME280;18335;51.486;7.562;2024-03-29T07:26:53;97932.28;;;10.71;100.00
31761;BME280;18335;51.486;7.562;2024-03-29T07:29:19;97934.41;;;10.69;100.00
31761;BME280;18335;51.486;7.562;2024-03-29T07:31:47;97931.19;;;10.97;100.00
31761;BME280;18335;51.486;7.562;2024-03-29T07:34:14;97940.91;;;10.93;100.00
31761;BME280;18335;51.486;7.562;2024-03-29T07:36:41;97925.41;;;11.30;100.00
31761;BME280;18335;51.486;7.562;2024-03-29T07:39:08;97921.09;;;11.40;100.00
31761;BME280;18335;51.486;7.562;2024-03-29T07:41:35;97940.03;;;11.35;100.00
31761;BME280;18335;51.486;7.562;2024-03-29T07:44:02;97942.41;;;11.50;100.00
31761;BME280;18335;51.486;7.562;2024-03-29T07:46:32;97953.63;;;11.42;100.00
31761;BME280;18335;51.486;7.562;2024-03-29T07:49:00;97956.81;;;11.39;100.00
31761;BME280;18335;51.486;7.562;2024-03-29T07:51:28;97979.28;;;11.41;100.00
31761;BME280;18335;51.486;7.562;2024-03-29T07:53:55;97964.41;;;11.37;100.00
31761;BME280;18335;51.486;7.562;2024-03-29T07:56:21;97970.94;;;11.54;100.00
31761;BME280;18335;51.486;7.562;2024-03-29T07:58:51;97979.09;;;11.36;100.00
31761;BME280;18335;51.486;7.562;2024-03-29T08:01:19;97986.28;;;11.55;100.00
31761;BME280;18335;51.486;7.562;2024-03-29T08:03:46;97992.72;;;11.60;100.00
31761;BME280;18335;51.486;7.562;2024-03-29T08:06:14;97981.09;;;11.65;100.00
31761;BME280;18335;51.486;7.562;2024-03-29T08:08:43;97993.84;;;11.53;100.00
31761;BME280;18335;51.486;7.562;2024-03-29T08:11:10;97996.28;;;11.43;100.00
31761;BME280;18335;51.486;7.562;2024-03-29T08:13:37;98000.66;;;11.62;100.00
31761;BME280;18335;51.486;7.562;2024-03-29T08:16:05;97990.69;;;11.74;100.00
31761;BME280;18335;51.486;7.562;2024-03-29T08:18:32;97998.88;;;11.92;100.00
31761;BME280;18335;51.486;7.562;2024-03-29T08:20:59;97997.44;;;11.90;100.00
31761;BME280;18335;51.486;7.562;2024-03-29T08:23:27;97991.00;;;12.02;100.00
31761;BME280;18335;51.486;7.562;2024-03-29T08:25:54;97987.69;;;11.82;100.00
31761;BME280;18335;51.486;7.562;2024-03-29T08:28:21;97996.91;;;11.99;100.00
31761;BME280;18335;51.486;7.562;2024-03-29T08:30:57;97974.00;;;12.00;100.00
31761;BME280;18335;51.486;7.562;2024-03-29T08:33:25;97988.31;;;12.14;100.00
31761;BME280;18335;51.486;7.562;2024-03-29T08:35:52;97984.16;;;12.11;100.00
31761;BME280;18335;51.486;7.562;2024-03-29T08:38:19;97997.47;;;12.38;100.00
31761;BME280;18335;51.486;7.562;2024-03-29T08:40:46;97993.47;;;12.22;100.00
31761;BME280;18335;51.486;7.562;2024-03-29T08:43:13;97993.41;;;12.10;100.00
31761;BME280;18335;51.486;7.562;2024-03-29T08:45:40;97990.66;;;12.29;100.00
31761;BME280;18335;51.486;7.562;2024-03-29T08:48:07;97991.53;;;12.41;100.00
31761;BME280;18335;51.486;7.562;2024-03-29T08:50:34;97986.44;;;12.44;100.00
31761;BME280;18335;51.486;7.562;2024-03-29T08:53:02;97991.63;;;12.34;100.00
31761;BME280;18335;51.486;7.562;2024-03-29T08:55:29;97987.31;;;12.56;100.00
31761;BME280;18335;51.486;7.562;2024-03-29T08:57:57;97991.28;;;12.72;100.00
31761;BME280;18335;51.486;7.562;2024-03-29T09:00:25;97990.09;;;12.68;100.00
31761;BME280;18335;51.486;7.562;2024-03-29T09:02:51;97982.94;;;12.67;100.00
31761;BME280;18335;51.486;7.562;2024-03-29T09:05:19;98002.47;;;12.82;100.00
31761;BME280;18335;51.486;7.562;2024-03-29T09:07:47;97994.13;;;13.18;100.00
31761;BME280;18335;51.486;7.562;2024-03-29T09:10:15;97982.03;;;12.96;100.00
31761;BME280;18335;51.486;7.562;2024-03-29T09:12:43;98009.88;;;12.93;100.00
31761;BME280;18335;51.486;7.562;2024-03-29T09:15:12;98011.81;;;13.04;100.00
31761;BME280;18335;51.486;7.562;2024-03-29T09:17:41;98027.03;;;12.89;100.00
31761;BME280;18335;51.486;7.562;2024-03-29T09:20:09;98015.25;;;13.00;100.00
31761;BME280;18335;51.486;7.562;2024-03-29T09:22:36;98026.91;;;13.37;100.00
31761;BME280;18335;51.486;7.562;2024-03-29T09:25:04;98018.56;;;13.32;100.00
31761;BME280;18335;51.486;7.562;2024-03-29T09:27:31;98014.41;;;13.64;100.00
31761;BME280;18335;51.486;7.562;2024-03-29T09:29:59;98007.00;;;13.64;100.00
31761;BME280;18335;51.486;7.562;2024-03-29T09:32:28;98007.81;;;13.88;100.00
31761;BME280;18335;51.486;7.562;2024-03-29T09:34:55;98020.47;;;13.66;100.00
31761;BME280;18335;51.486;7.562;2024-03-29T09:37:22;97998.97;;;13.86;100.00
31761;BME280;18335;51.486;7.562;2024-03-29T09:39:49;98014.88;;;13.72;100.00
31761;BME280;18335;51.486;7.562;2024-03-29T09:42:16;98017.97;;;13.53;100.00
31761;BME280;18335;51.486;7.562;2024-03-29T09:44:45;98004.25;;;13.76;100.00
31761;BME280;18335;51.486;7.562;2024-03-29T09:47:15;98002.06;;;13.90;100.00
31761;BME280;18335;51.486;7.562;2024-03-29T09:49:47;98011.47;;;14.05;100.00
31761;BME280;18335;51.486;7.562;2024-03-29T09:52:16;98004.78;;;14.01;100.00
31761;BME280;18335;51.486;7.562;2024-03-29T09:54:43;98007.16;;;14.21;100.00
31761;BME280;18335;51.486;7.562;2024-03-29T09:57:11;98015.97;;;14.23;100.00
31761;BME280;18335;51.486;7.562;2024-03-29T09:59:38;98009.09;;;14.49;100.00
31761;BME280;18335;51.486;7.562;2024-03-29T10:02:17;98015.75;;;14.53;100.00
31761;BME280;18335;51.486;7.562;2024-03-29T10:04:48;98023.41;;;14.51;100.00
31761;BME280;18335;51.486;7.562;2024-03-29T10:07:18;98028.06;;;14.78;100.00
31761;BME280;18335;51.486;7.562;2024-03-29T10:09:46;98022.81;;;14.77;100.00
31761;BME280;18335;51.486;7.562;2024-03-29T10:12:12;98016.69;;;14.86;100.00
31761;BME280;18335;51.486;7.562;2024-03-29T10:14:45;98022.47;;;15.18;100.00
31761;BME280;18335;51.486;7.562;2024-03-29T10:17:15;98028.94;;;15.12;100.00
31761;BME280;18335;51.486;7.562;2024-03-29T10:19:43;98030.69;;;15.02;100.00
31761;BME280;18335;51.486;7.562;2024-03-29T10:22:11;98024.47;;;15.73;100.00
31761;BME280;18335;51.486;7.562;2024-03-29T10:24:38;98039.22;;;15.67;100.00
31761;BME280;18335;51.486;7.562;2024-03-29T10:27:05;98036.63;;;15.43;100.00
31761;BME280;18335;51.486;7.562;2024-03-29T10:29:32;98040.06;;;15.50;100.00
31761;BME280;18335;51.486;7.562;2024-03-29T10:31:59;98038.22;;;15.23;100.00
31761;BME280;18335;51.486;7.562;2024-03-29T10:34:26;98050.88;;;15.40;100.00
31761;BME280;18335;51.486;7.562;2024-03-29T10:36:55;98040.06;;;15.50;100.00
31761;BME280;18335;51.486;7.562;2024-03-29T10:39:23;98038.38;;;15.16;100.00
31761;BME280;18335;51.486;7.562;2024-03-29T10:41:51;98033.06;;;15.60;100.00
31761;BME280;18335;51.486;7.562;2024-03-29T10:44:20;98040.22;;;15.61;100.00
31761;BME280;18335;51.486;7.562;2024-03-29T10:46:47;98046.22;;;15.58;100.00
31761;BME280;18335;51.486;7.562;2024-03-29T10:49:17;98040.81;;;15.63;100.00
31761;BME280;18335;51.486;7.562;2024-03-29T10:51:44;98049.88;;;15.80;100.00
31761;BME280;18335;51.486;7.562;2024-03-29T10:54:12;98048.72;;;15.76;100.00
31761;BME280;18335;51.486;7.562;2024-03-29T10:56:40;98053.38;;;15.75;100.00
31761;BME280;18335;51.486;7.562;2024-03-29T10:59:12;98058.41;;;15.62;100.00
31761;BME280;18335;51.486;7.562;2024-03-29T11:01:44;98046.53;;;15.78;100.00
31761;BME280;18335;51.486;7.562;2024-03-29T11:04:18;98041.16;;;16.04;100.00
31761;BME280;18335;51.486;7.562;2024-03-29T11:06:50;98027.19;;;15.89;100.00
31761;BME280;18335;51.486;7.562;2024-03-29T11:09:19;98031.31;;;16.09;100.00
31761;BME280;18335;51.486;7.562;2024-03-29T11:11:50;98029.22;;;16.16;100.00
31761;BME280;18335;51.486;7.562;2024-03-29T11:14:20;98019.16;;;16.48;100.00
31761;BME280;18335;51.486;7.562;2024-03-29T11:16:50;98026.75;;;16.19;100.00
31761;BME280;18335;51.486;7.562;2024-03-29T11:19:22;98031.75;;;16.22;100.00
31761;BME280;18335;51.486;7.562;2024-03-29T11:21:50;98039.50;;;16.90;100.00
31761;BME280;18335;51.486;7.562;2024-03-29T11:24:18;98038.16;;;16.49;100.00
31761;BME280;18335;51.486;7.562;2024-03-29T11:26:45;98028.88;;;16.34;100.00
31761;BME280;18335;51.486;7.562;2024-03-29T11:29:19;98030.69;;;16.23;100.00
31761;BME280;18335;51.486;7.562;2024-03-29T11:31:46;98034.25;;;16.67;100.00
31761;BME280;18335;51.486;7.562;2024-03-29T11:34:18;98036.25;;;16.28;100.00
31761;BME280;18335;51.486;7.562;2024-03-29T11:36:44;98029.22;;;16.59;100.00
31761;BME280;18335;51.486;7.562;2024-03-29T11:39:19;98031.16;;;16.85;100.00
31761;BME280;18335;51.486;7.562;2024-03-29T11:41:47;98050.56;;;17.22;100.00
31761;BME280;18335;51.486;7.562;2024-03-29T11:44:13;98040.31;;;16.91;100.00
31761;BME280;18335;51.486;7.562;2024-03-29T11:46:42;98056.75;;;16.81;100.00
31761;BME280;18335;51.486;7.562;2024-03-29T11:49:09;98057.06;;;16.41;100.00
31761;BME280;18335;51.486;7.562;2024-03-29T11:51:36;98050.56;;;16.52;100.00
31761;BME280;18335;51.486;7.562;2024-03-29T11:54:02;98057.28;;;16.56;100.00
31761;BME280;18335;51.486;7.562;2024-03-29T11:56:29;98054.69;;;16.93;100.00
31761;BME280;18335;51.486;7.562;2024-03-29T11:58:56;98045.72;;;16.81;100.00
31761;BME280;18335;51.486;7.562;2024-03-29T12:01:25;98037.81;;;17.16;100.00
31761;BME280;18335;51.486;7.562;2024-03-29T12:03:54;98024.00;;;16.84;100.00
31761;BME280;18335;51.486;7.562;2024-03-29T12:06:20;98037.38;;;16.76;100.00
31761;BME280;18335;51.486;7.562;2024-03-29T12:08:48;98043.16;;;17.28;100.00
31761;BME280;18335;51.486;7.562;2024-03-29T12:11:18;98052.84;;;16.77;100.00
31761;BME280;18335;51.486;7.562;2024-03-29T12:13:45;98070.03;;;16.89;100.00
31761;BME280;18335;51.486;7.562;2024-03-29T12:16:12;98088.06;;;16.75;100.00
31761;BME280;18335;51.486;7.562;2024-03-29T12:18:38;98107.22;;;16.26;100.00
31761;BME280;18335;51.486;7.562;2024-03-29T12:21:06;98092.91;;;16.08;100.00
31761;BME280;18335;51.486;7.562;2024-03-29T12:23:34;98110.53;;;16.07;100.00
31761;BME280;18335;51.486;7.562;2024-03-29T12:26:02;98113.22;;;15.85;100.00
31761;BME280;18335;51.486;7.562;2024-03-29T12:28:29;98118.72;;;15.85;100.00
31761;BME280;18335;51.486;7.562;2024-03-29T12:30:59;98132.03;;;15.60;100.00
31761;BME280;18335;51.486;7.562;2024-03-29T12:33:26;98114.94;;;15.91;100.00
31761;BME280;18335;51.486;7.562;2024-03-29T12:35:54;98126.53;;;16.10;100.00
31761;BME280;18335;51.486;7.562;2024-03-29T12:38:24;98119.94;;;15.94;100.00
31761;BME280;18335;51.486;7.562;2024-03-29T12:40:51;98127.88;;;15.90;100.00
31761;BME280;18335;51.486;7.562;2024-03-29T12:43:22;98129.44;;;15.86;100.00
31761;BME280;18335;51.486;7.562;2024-03-29T12:45:50;98132.53;;;15.57;100.00
31761;BME280;18335;51.486;7.562;2024-03-29T12:48:18;98126.19;;;15.11;100.00
31761;BME280;18335;51.486;7.562;2024-03-29T12:50:46;98145.44;;;15.28;100.00
31761;BME280;18335;51.486;7.562;2024-03-29T12:53:14;98152.69;;;14.77;100.00